sensor_id;sensor_type;location;lat;lon;timestamp;P1;durP1;ratioP1;P2;durP2;ratioP2
43154;SDS011;34212;51.018;13.586;2024-01-16T00:00:55;9.98;;;1.10;;
43154;SDS011;34212;51.018;13.586;2024-01-16T00:05:56;12.55;;;1.10;;
43154;SDS011;34212;51.018;13.586;2024-01-16T00:10:58;5.70;;;0.90;;
43154;SDS011;34212;51.018;13.586;2024-01-16T00:16:01;5.85;;;1.40;;
43154;SDS011;34212;51.018;13.586;2024-01-16T00:21:03;2.72;;;1.00;;
43154;SDS011;34212;51.018;13.586;2024-01-16T00:26:05;4.95;;;1.30;;
43154;SDS011;34212;51.018;13.586;2024-01-16T00:31:07;9.80;;;1.40;;
43154;SDS011;34212;51.018;13.586;2024-01-16T00:36:09;3.20;;;1.23;;
43154;SDS011;34212;51.018;13.586;2024-01-16T00:41:11;4.88;;;1.58;;
43154;SDS011;34212;51.018;13.586;2024-01-16T00:46:15;5.30;;;1.48;;
43154;SDS011;34212;51.018;13.586;2024-01-16T00:51:17;6.78;;;1.88;;
43154;SDS011;34212;51.018;13.586;2024-01-16T00:56:18;8.93;;;2.08;;
43154;SDS011;34212;51.018;13.586;2024-01-16T01:01:20;5.28;;;1.73;;
43154;SDS011;34212;51.018;13.586;2024-01-16T01:06:22;12.68;;;1.92;;
43154;SDS011;34212;51.018;13.586;2024-01-16T01:11:23;12.35;;;2.47;;
43154;SDS011;34212;51.018;13.586;2024-01-16T01:16:25;9.38;;;1.80;;
43154;SDS011;34212;51.018;13.586;2024-01-16T01:21:26;16.10;;;2.08;;
43154;SDS011;34212;51.018;13.586;2024-01-16T01:26:28;21.85;;;2.00;;
43154;SDS011;34212;51.018;13.586;2024-01-16T01:31:29;9.88;;;1.77;;
43154;SDS011;34212;51.018;13.586;2024-01-16T01:36:31;18.33;;;1.73;;
43154;SDS011;34212;51.018;13.586;2024-01-16T01:41:32;9.25;;;1.58;;
43154;SDS011;34212;51.018;13.586;2024-01-16T01:46:34;11.25;;;2.00;;
43154;SDS011;34212;51.018;13.586;2024-01-16T01:51:36;10.40;;;1.00;;
43154;SDS011;34212;51.018;13.586;2024-01-16T01:56:38;14.27;;;2.00;;
43154;SDS011;34212;51.018;13.586;2024-01-16T02:01:43;10.57;;;2.30;;
43154;SDS011;34212;51.018;13.586;2024-01-16T02:06:46;12.38;;;1.25;;
43154;SDS011;34212;51.018;13.586;2024-01-16T02:11:48;14.15;;;1.42;;
43154;SDS011;34212;51.018;13.586;2024-01-16T02:16:49;8.30;;;1.52;;
43154;SDS011;34212;51.018;13.586;2024-01-16T02:21:53;7.47;;;1.00;;
43154;SDS011;34212;51.018;13.586;2024-01-16T02:27:00;12.38;;;1.40;;
43154;SDS011;34212;51.018;13.586;2024-01-16T02:32:01;7.25;;;1.40;;
43154;SDS011;34212;51.018;13.586;2024-01-16T02:37:04;5.97;;;1.38;;
43154;SDS011;34212;51.018;13.586;2024-01-16T02:42:06;4.10;;;1.60;;
43154;SDS011;34212;51.018;13.586;2024-01-16T02:47:07;12.80;;;1.90;;
43154;SDS011;34212;51.018;13.586;2024-01-16T02:52:09;22.15;;;2.00;;
43154;SDS011;34212;51.018;13.586;2024-01-16T02:57:10;5.82;;;1.30;;
43154;SDS011;34212;51.018;13.586;2024-01-16T03:02:12;6.60;;;1.35;;
43154;SDS011;34212;51.018;13.586;2024-01-16T03:07:14;5.03;;;1.23;;
43154;SDS011;34212;51.018;13.586;2024-01-16T03:12:16;5.80;;;1.67;;
43154;SDS011;34212;51.018;13.586;2024-01-16T03:17:17;9.77;;;1.23;;
43154;SDS011;34212;51.018;13.586;2024-01-16T03:22:19;6.30;;;1.45;;
43154;SDS011;34212;51.018;13.586;2024-01-16T03:27:20;4.72;;;1.77;;
43154;SDS011;34212;51.018;13.586;2024-01-16T03:32:22;4.82;;;1.13;;
43154;SDS011;34212;51.018;13.586;2024-01-16T03:37:23;8.88;;;1.40;;
43154;SDS011;34212;51.018;13.586;2024-01-16T03:42:25;9.93;;;1.80;;
43154;SDS011;34212;51.018;13.586;2024-01-16T03:47:26;10.70;;;1.60;;
43154;SDS011;34212;51.018;13.586;2024-01-16T03:52:28;8.60;;;1.83;;
43154;SDS011;34212;51.018;13.586;2024-01-16T03:57:30;10.65;;;2.40;;
43154;SDS011;34212;51.018;13.586;2024-01-16T04:02:31;8.32;;;1.83;;
43154;SDS011;34212;51.018;13.586;2024-01-16T04:07:33;9.15;;;1.98;;
43154;SDS011;34212;51.018;13.586;2024-01-16T04:12:35;8.63;;;2.65;;
43154;SDS011;34212;51.018;13.586;2024-01-16T04:17:36;9.95;;;2.22;;
43154;SDS011;34212;51.018;13.586;2024-01-16T04:22:38;5.45;;;1.55;;
43154;SDS011;34212;51.018;13.586;2024-01-16T04:27:40;8.38;;;1.98;;
43154;SDS011;34212;51.018;13.586;2024-01-16T04:32:41;10.38;;;1.48;;
43154;SDS011;34212;51.018;13.586;2024-01-16T04:37:43;8.88;;;1.38;;
43154;SDS011;34212;51.018;13.586;2024-01-16T04:42:45;16.80;;;2.53;;
43154;SDS011;34212;51.018;13.586;2024-01-16T04:47:46;9.95;;;2.13;;
43154;SDS011;34212;51.018;13.586;2024-01-16T04:52:48;5.82;;;1.08;;
43154;SDS011;34212;51.018;13.586;2024-01-16T04:57:54;11.38;;;2.75;;
43154;SDS011;34212;51.018;13.586;2024-01-16T05:02:56;12.75;;;2.22;;
43154;SDS011;34212;51.018;13.586;2024-01-16T05:08:00;11.48;;;1.80;;
43154;SDS011;34212;51.018;13.586;2024-01-16T05:13:02;9.60;;;2.17;;
43154;SDS011;34212;51.018;13.586;2024-01-16T05:18:03;2.80;;;0.65;;
43154;SDS011;34212;51.018;13.586;2024-01-16T05:23:05;1.95;;;0.88;;
43154;SDS011;34212;51.018;13.586;2024-01-16T05:28:07;5.60;;;0.80;;
43154;SDS011;34212;51.018;13.586;2024-01-16T05:33:08;2.88;;;0.80;;
43154;SDS011;34212;51.018;13.586;2024-01-16T05:38:10;8.10;;;0.95;;
43154;SDS011;34212;51.018;13.586;2024-01-16T05:43:13;7.45;;;1.40;;
43154;SDS011;34212;51.018;13.586;2024-01-16T05:48:16;6.83;;;0.83;;
43154;SDS011;34212;51.018;13.586;2024-01-16T05:53:17;4.32;;;0.90;;
43154;SDS011;34212;51.018;13.586;2024-01-16T05:58:19;4.78;;;1.00;;
43154;SDS011;34212;51.018;13.586;2024-01-16T06:03:20;12.80;;;2.13;;
43154;SDS011;34212;51.018;13.586;2024-01-16T06:08:22;3.67;;;0.88;;
43154;SDS011;34212;51.018;13.586;2024-01-16T06:13:23;9.13;;;2.38;;
43154;SDS011;34212;51.018;13.586;2024-01-16T06:18:25;10.65;;;2.03;;
43154;SDS011;34212;51.018;13.586;2024-01-16T06:23:26;2.80;;;1.17;;
43154;SDS011;34212;51.018;13.586;2024-01-16T06:28:28;7.03;;;1.42;;
43154;SDS011;34212;51.018;13.586;2024-01-16T06:33:30;2.92;;;1.30;;
43154;SDS011;34212;51.018;13.586;2024-01-16T06:38:31;15.93;;;2.35;;
43154;SDS011;34212;51.018;13.586;2024-01-16T06:43:33;9.75;;;1.95;;
43154;SDS011;34212;51.018;13.586;2024-01-16T06:48:35;13.55;;;1.55;;
43154;SDS011;34212;51.018;13.586;2024-01-16T06:53:38;1.63;;;0.90;;
43154;SDS011;34212;51.018;13.586;2024-01-16T06:58:40;10.75;;;1.33;;
43154;SDS011;34212;51.018;13.586;2024-01-16T07:03:41;9.23;;;1.90;;
43154;SDS011;34212;51.018;13.586;2024-01-16T07:08:43;5.47;;;1.45;;
43154;SDS011;34212;51.018;13.586;2024-01-16T07:13:46;14.35;;;2.38;;
43154;SDS011;34212;51.018;13.586;2024-01-16T07:18:47;7.63;;;1.83;;
43154;SDS011;34212;51.018;13.586;2024-01-16T07:23:50;6.30;;;2.05;;
43154;SDS011;34212;51.018;13.586;2024-01-16T07:28:52;5.38;;;1.10;;
43154;SDS011;34212;51.018;13.586;2024-01-16T07:33:53;4.43;;;1.60;;
43154;SDS011;34212;51.018;13.586;2024-01-16T07:38:55;6.65;;;1.13;;
43154;SDS011;34212;51.018;13.586;2024-01-16T07:43:57;9.60;;;1.58;;
43154;SDS011;34212;51.018;13.586;2024-01-16T07:48:58;12.52;;;2.55;;
43154;SDS011;34212;51.018;13.586;2024-01-16T07:54:06;7.60;;;1.20;;
43154;SDS011;34212;51.018;13.586;2024-01-16T07:59:09;4.72;;;0.70;;
43154;SDS011;34212;51.018;13.586;2024-01-16T08:04:11;14.30;;;2.05;;
43154;SDS011;34212;51.018;13.586;2024-01-16T08:09:12;7.35;;;2.10;;
43154;SDS011;34212;51.018;13.586;2024-01-16T08:14:15;9.95;;;1.55;;
43154;SDS011;34212;51.018;13.586;2024-01-16T08:19:16;6.90;;;1.35;;
43154;SDS011;34212;51.018;13.586;2024-01-16T08:24:18;8.13;;;2.28;;
43154;SDS011;34212;51.018;13.586;2024-01-16T08:29:19;4.10;;;1.45;;
43154;SDS011;34212;51.018;13.586;2024-01-16T08:34:21;11.20;;;3.40;;
43154;SDS011;34212;51.018;13.586;2024-01-16T08:39:23;15.95;;;3.10;;
43154;SDS011;34212;51.018;13.586;2024-01-16T08:44:25;10.20;;;2.63;;
43154;SDS011;34212;51.018;13.586;2024-01-16T08:49:27;11.20;;;1.45;;
43154;SDS011;34212;51.018;13.586;2024-01-16T08:54:28;17.77;;;4.60;;
43154;SDS011;34212;51.018;13.586;2024-01-16T08:59:30;7.60;;;2.35;;
43154;SDS011;34212;51.018;13.586;2024-01-16T09:04:31;10.40;;;2.92;;
43154;SDS011;34212;51.018;13.586;2024-01-16T09:09:33;7.57;;;1.83;;
43154;SDS011;34212;51.018;13.586;2024-01-16T09:14:35;6.10;;;2.80;;
43154;SDS011;34212;51.018;13.586;2024-01-16T09:19:36;9.18;;;3.00;;
43154;SDS011;34212;51.018;13.586;2024-01-16T09:24:38;13.02;;;2.92;;
43154;SDS011;34212;51.018;13.586;2024-01-16T09:29:39;5.68;;;3.05;;
43154;SDS011;34212;51.018;13.586;2024-01-16T09:34:41;12.35;;;3.17;;
43154;SDS011;34212;51.018;13.586;2024-01-16T09:39:42;10.30;;;3.25;;
43154;SDS011;34212;51.018;13.586;2024-01-16T09:44:44;9.68;;;3.00;;
43154;SDS011;34212;51.018;13.586;2024-01-16T09:49:46;7.25;;;3.15;;
43154;SDS011;34212;51.018;13.586;2024-01-16T09:54:49;9.23;;;3.67;;
43154;SDS011;34212;51.018;13.586;2024-01-16T09:59:51;10.57;;;3.10;;
43154;SDS011;34212;51.018;13.586;2024-01-16T10:04:53;7.20;;;3.33;;
43154;SDS011;34212;51.018;13.586;2024-01-16T10:09:58;4.30;;;1.77;;
43154;SDS011;34212;51.018;13.586;2024-01-16T10:14:59;11.52;;;2.50;;
43154;SDS011;34212;51.018;13.586;2024-01-16T10:20:01;8.15;;;2.58;;
43154;SDS011;34212;51.018;13.586;2024-01-16T10:25:06;17.23;;;2.90;;
43154;SDS011;34212;51.018;13.586;2024-01-16T10:30:13;5.97;;;2.50;;
43154;SDS011;34212;51.018;13.586;2024-01-16T10:35:15;10.88;;;2.97;;
43154;SDS011;34212;51.018;13.586;2024-01-16T10:40:17;8.15;;;3.20;;
43154;SDS011;34212;51.018;13.586;2024-01-16T10:45:32;10.02;;;2.53;;
43154;SDS011;34212;51.018;13.586;2024-01-16T10:50:35;7.55;;;2.90;;
43154;SDS011;34212;51.018;13.586;2024-01-16T10:55:50;13.65;;;3.35;;
43154;SDS011;34212;51.018;13.586;2024-01-16T11:00:53;4.55;;;2.10;;
43154;SDS011;34212;51.018;13.586;2024-01-16T11:05:57;5.25;;;2.58;;
43154;SDS011;34212;51.018;13.586;2024-01-16T11:10:59;8.40;;;3.38;;
43154;SDS011;34212;51.018;13.586;2024-01-16T11:16:02;13.13;;;3.15;;
43154;SDS011;34212;51.018;13.586;2024-01-16T11:21:09;12.55;;;3.08;;
43154;SDS011;34212;51.018;13.586;2024-01-16T11:26:28;7.68;;;2.95;;
43154;SDS011;34212;51.018;13.586;2024-01-16T11:31:34;9.32;;;2.85;;
43154;SDS011;34212;51.018;13.586;2024-01-16T11:41:48;6.65;;;2.58;;
43154;SDS011;34212;51.018;13.586;2024-01-16T11:47:00;9.80;;;3.13;;
43154;SDS011;34212;51.018;13.586;2024-01-16T11:52:01;5.97;;;3.13;;
43154;SDS011;34212;51.018;13.586;2024-01-16T12:07:53;8.45;;;2.78;;
43154;SDS011;34212;51.018;13.586;2024-01-16T12:18:04;10.05;;;3.97;;
43154;SDS011;34212;51.018;13.586;2024-01-16T12:23:07;6.15;;;3.55;;
43154;SDS011;34212;51.018;13.586;2024-01-16T12:28:08;10.43;;;2.80;;
43154;SDS011;34212;51.018;13.586;2024-01-16T12:33:24;8.95;;;2.55;;
43154;SDS011;34212;51.018;13.586;2024-01-16T12:38:25;7.35;;;2.97;;
43154;SDS011;34212;51.018;13.586;2024-01-16T12:43:27;10.98;;;3.03;;
43154;SDS011;34212;51.018;13.586;2024-01-16T12:48:29;7.07;;;3.00;;
43154;SDS011;34212;51.018;13.586;2024-01-16T12:53:31;12.77;;;2.83;;
43154;SDS011;34212;51.018;13.586;2024-01-16T12:58:33;7.33;;;4.07;;
43154;SDS011;34212;51.018;13.586;2024-01-16T13:08:38;5.25;;;2.65;;
43154;SDS011;34212;51.018;13.586;2024-01-16T13:13:39;8.45;;;3.13;;
43154;SDS011;34212;51.018;13.586;2024-01-16T13:18:41;5.13;;;3.03;;
43154;SDS011;34212;51.018;13.586;2024-01-16T13:23:43;5.15;;;2.65;;
43154;SDS011;34212;51.018;13.586;2024-01-16T13:28:47;5.05;;;2.35;;
43154;SDS011;34212;51.018;13.586;2024-01-16T13:33:49;5.60;;;2.13;;
43154;SDS011;34212;51.018;13.586;2024-01-16T13:38:50;10.40;;;3.17;;
43154;SDS011;34212;51.018;13.586;2024-01-16T13:43:52;7.53;;;2.53;;
43154;SDS011;34212;51.018;13.586;2024-01-16T13:48:54;8.88;;;2.92;;
43154;SDS011;34212;51.018;13.586;2024-01-16T13:53:55;8.88;;;2.38;;
43154;SDS011;34212;51.018;13.586;2024-01-16T13:58:58;4.55;;;2.60;;
43154;SDS011;34212;51.018;13.586;2024-01-16T14:04:00;6.20;;;3.23;;
43154;SDS011;34212;51.018;13.586;2024-01-16T14:09:02;5.18;;;2.65;;
43154;SDS011;34212;51.018;13.586;2024-01-16T14:14:04;7.45;;;2.80;;
43154;SDS011;34212;51.018;13.586;2024-01-16T14:19:06;8.25;;;2.60;;
43154;SDS011;34212;51.018;13.586;2024-01-16T14:24:07;5.82;;;1.95;;
43154;SDS011;34212;51.018;13.586;2024-01-16T14:34:12;3.35;;;2.25;;
43154;SDS011;34212;51.018;13.586;2024-01-16T14:39:14;5.68;;;2.35;;
43154;SDS011;34212;51.018;13.586;2024-01-16T14:44:19;7.38;;;2.65;;
43154;SDS011;34212;51.018;13.586;2024-01-16T14:49:21;10.48;;;2.60;;
43154;SDS011;34212;51.018;13.586;2024-01-16T14:54:23;10.70;;;3.70;;
43154;SDS011;34212;51.018;13.586;2024-01-16T14:59:24;10.52;;;2.58;;
43154;SDS011;34212;51.018;13.586;2024-01-16T15:04:26;5.20;;;1.88;;
43154;SDS011;34212;51.018;13.586;2024-01-16T15:09:28;7.43;;;2.22;;
43154;SDS011;34212;51.018;13.586;2024-01-16T15:14:29;5.28;;;1.90;;
43154;SDS011;34212;51.018;13.586;2024-01-16T15:19:31;8.30;;;2.65;;
43154;SDS011;34212;51.018;13.586;2024-01-16T15:24:32;5.57;;;2.60;;
43154;SDS011;34212;51.018;13.586;2024-01-16T15:29:34;11.93;;;3.42;;
43154;SDS011;34212;51.018;13.586;2024-01-16T15:34:36;5.00;;;2.83;;
43154;SDS011;34212;51.018;13.586;2024-01-16T15:39:38;8.45;;;3.10;;
43154;SDS011;34212;51.018;13.586;2024-01-16T15:44:40;9.52;;;2.83;;
43154;SDS011;34212;51.018;13.586;2024-01-16T15:49:41;9.63;;;2.70;;
43154;SDS011;34212;51.018;13.586;2024-01-16T15:54:43;5.75;;;2.15;;
43154;SDS011;34212;51.018;13.586;2024-01-16T15:59:45;5.13;;;1.15;;
43154;SDS011;34212;51.018;13.586;2024-01-16T16:04:46;9.30;;;2.00;;
43154;SDS011;34212;51.018;13.586;2024-01-16T16:09:48;6.32;;;2.15;;
43154;SDS011;34212;51.018;13.586;2024-01-16T16:14:49;13.00;;;2.88;;
43154;SDS011;34212;51.018;13.586;2024-01-16T16:19:51;6.60;;;2.97;;
43154;SDS011;34212;51.018;13.586;2024-01-16T16:24:53;6.95;;;4.13;;
43154;SDS011;34212;51.018;13.586;2024-01-16T16:29:55;7.72;;;3.83;;
43154;SDS011;34212;51.018;13.586;2024-01-16T16:34:58;8.32;;;3.88;;
43154;SDS011;34212;51.018;13.586;2024-01-16T16:40:00;11.88;;;4.05;;
43154;SDS011;34212;51.018;13.586;2024-01-16T16:45:01;9.57;;;4.32;;
43154;SDS011;34212;51.018;13.586;2024-01-16T16:50:03;8.27;;;3.88;;
43154;SDS011;34212;51.018;13.586;2024-01-16T16:55:06;8.77;;;4.20;;
43154;SDS011;34212;51.018;13.586;2024-01-16T17:00:08;7.63;;;3.67;;
43154;SDS011;34212;51.018;13.586;2024-01-16T17:05:10;14.95;;;4.35;;
43154;SDS011;34212;51.018;13.586;2024-01-16T17:10:12;9.68;;;5.00;;
43154;SDS011;34212;51.018;13.586;2024-01-16T17:15:14;8.30;;;4.22;;
43154;SDS011;34212;51.018;13.586;2024-01-16T17:20:15;12.70;;;4.80;;
43154;SDS011;34212;51.018;13.586;2024-01-16T17:25:17;11.15;;;4.97;;
43154;SDS011;34212;51.018;13.586;2024-01-16T17:30:18;8.65;;;4.63;;
43154;SDS011;34212;51.018;13.586;2024-01-16T17:35:20;14.65;;;4.68;;
43154;SDS011;34212;51.018;13.586;2024-01-16T17:40:23;7.15;;;4.70;;
43154;SDS011;34212;51.018;13.586;2024-01-16T17:45:25;9.82;;;4.93;;
43154;SDS011;34212;51.018;13.586;2024-01-16T17:50:27;9.02;;;4.97;;
43154;SDS011;34212;51.018;13.586;2024-01-16T17:55:29;7.20;;;4.63;;
43154;SDS011;34212;51.018;13.586;2024-01-16T18:00:34;11.02;;;4.40;;
43154;SDS011;34212;51.018;13.586;2024-01-16T18:05:36;6.20;;;4.03;;
43154;SDS011;34212;51.018;13.586;2024-01-16T18:10:38;7.90;;;5.13;;
43154;SDS011;34212;51.018;13.586;2024-01-16T18:15:40;9.35;;;4.13;;
43154;SDS011;34212;51.018;13.586;2024-01-16T18:20:42;9.07;;;4.63;;
43154;SDS011;34212;51.018;13.586;2024-01-16T18:25:44;9.90;;;4.18;;
43154;SDS011;34212;51.018;13.586;2024-01-16T18:30:47;6.90;;;4.80;;
43154;SDS011;34212;51.018;13.586;2024-01-16T18:35:49;6.57;;;4.20;;
43154;SDS011;34212;51.018;13.586;2024-01-16T18:40:51;7.00;;;4.35;;
43154;SDS011;34212;51.018;13.586;2024-01-16T18:45:53;21.13;;;5.43;;
43154;SDS011;34212;51.018;13.586;2024-01-16T18:50:55;9.13;;;3.75;;
43154;SDS011;34212;51.018;13.586;2024-01-16T18:55:57;11.18;;;4.20;;
43154;SDS011;34212;51.018;13.586;2024-01-16T19:00:59;7.93;;;3.95;;
43154;SDS011;34212;51.018;13.586;2024-01-16T19:06:03;7.65;;;4.63;;
43154;SDS011;34212;51.018;13.586;2024-01-16T19:11:13;8.50;;;4.50;;
43154;SDS011;34212;51.018;13.586;2024-01-16T19:16:16;10.20;;;4.68;;
43154;SDS011;34212;51.018;13.586;2024-01-16T19:21:17;7.03;;;4.57;;
43154;SDS011;34212;51.018;13.586;2024-01-16T19:26:19;6.43;;;3.80;;
43154;SDS011;34212;51.018;13.586;2024-01-16T19:31:21;7.18;;;4.75;;
43154;SDS011;34212;51.018;13.586;2024-01-16T19:36:23;8.25;;;4.72;;
43154;SDS011;34212;51.018;13.586;2024-01-16T19:41:24;11.65;;;5.38;;
43154;SDS011;34212;51.018;13.586;2024-01-16T19:46:27;7.90;;;4.50;;
43154;SDS011;34212;51.018;13.586;2024-01-16T19:51:28;9.98;;;4.78;;
43154;SDS011;34212;51.018;13.586;2024-01-16T19:56:31;10.50;;;4.50;;
43154;SDS011;34212;51.018;13.586;2024-01-16T20:01:33;8.30;;;5.78;;
43154;SDS011;34212;51.018;13.586;2024-01-16T20:06:34;4.65;;;3.65;;
43154;SDS011;34212;51.018;13.586;2024-01-16T20:11:36;6.25;;;4.63;;
43154;SDS011;34212;51.018;13.586;2024-01-16T20:16:38;9.32;;;4.88;;
43154;SDS011;34212;51.018;13.586;2024-01-16T20:21:40;10.30;;;5.17;;
43154;SDS011;34212;51.018;13.586;2024-01-16T20:26:45;9.80;;;4.28;;
43154;SDS011;34212;51.018;13.586;2024-01-16T20:31:46;7.93;;;3.63;;
43154;SDS011;34212;51.018;13.586;2024-01-16T20:36:48;7.93;;;3.42;;
43154;SDS011;34212;51.018;13.586;2024-01-16T20:41:56;6.13;;;4.40;;
43154;SDS011;34212;51.018;13.586;2024-01-16T20:46:58;6.80;;;4.43;;
43154;SDS011;34212;51.018;13.586;2024-01-16T20:52:01;10.00;;;4.60;;
43154;SDS011;34212;51.018;13.586;2024-01-16T20:57:03;8.80;;;3.38;;
43154;SDS011;34212;51.018;13.586;2024-01-16T21:02:04;6.25;;;4.28;;
43154;SDS011;34212;51.018;13.586;2024-01-16T21:07:06;8.73;;;3.47;;
43154;SDS011;34212;51.018;13.586;2024-01-16T21:12:08;4.85;;;3.70;;
43154;SDS011;34212;51.018;13.586;2024-01-16T21:17:10;7.80;;;3.38;;
43154;SDS011;34212;51.018;13.586;2024-01-16T21:22:11;6.97;;;3.08;;
43154;SDS011;34212;51.018;13.586;2024-01-16T21:27:18;6.25;;;3.17;;
43154;SDS011;34212;51.018;13.586;2024-01-16T21:32:20;5.28;;;2.38;;
43154;SDS011;34212;51.018;13.586;2024-01-16T21:37:21;4.85;;;2.50;;
43154;SDS011;34212;51.018;13.586;2024-01-16T21:42:23;4.88;;;3.05;;
43154;SDS011;34212;51.018;13.586;2024-01-16T21:47:25;3.53;;;2.63;;
43154;SDS011;34212;51.018;13.586;2024-01-16T21:52:26;5.07;;;2.22;;
43154;SDS011;34212;51.018;13.586;2024-01-16T21:57:28;3.55;;;2.30;;
43154;SDS011;34212;51.018;13.586;2024-01-16T22:02:32;8.93;;;3.10;;
43154;SDS011;34212;51.018;13.586;2024-01-16T22:07:35;3.75;;;2.70;;
43154;SDS011;34212;51.018;13.586;2024-01-16T22:12:36;3.08;;;2.15;;
43154;SDS011;34212;51.018;13.586;2024-01-16T22:17:38;4.93;;;3.03;;
43154;SDS011;34212;51.018;13.586;2024-01-16T22:22:40;4.28;;;3.40;;
43154;SDS011;34212;51.018;13.586;2024-01-16T22:27:41;8.13;;;3.30;;
43154;SDS011;34212;51.018;13.586;2024-01-16T22:32:43;5.30;;;3.58;;
43154;SDS011;34212;51.018;13.586;2024-01-16T22:37:45;7.63;;;3.85;;
43154;SDS011;34212;51.018;13.586;2024-01-16T22:42:49;4.63;;;2.70;;
43154;SDS011;34212;51.018;13.586;2024-01-16T22:47:51;3.45;;;2.25;;
43154;SDS011;34212;51.018;13.586;2024-01-16T22:52:54;3.78;;;2.33;;
43154;SDS011;34212;51.018;13.586;2024-01-16T22:57:55;4.47;;;2.50;;
43154;SDS011;34212;51.018;13.586;2024-01-16T23:02:57;5.47;;;2.20;;
43154;SDS011;34212;51.018;13.586;2024-01-16T23:07:59;4.60;;;2.33;;
43154;SDS011;34212;51.018;13.586;2024-01-16T23:13:00;3.85;;;2.15;;
43154;SDS011;34212;51.018;13.586;2024-01-16T23:18:02;3.75;;;2.60;;
43154;SDS011;34212;51.018;13.586;2024-01-16T23:23:07;3.70;;;2.28;;
43154;SDS011;34212;51.018;13.586;2024-01-16T23:28:12;3.00;;;1.80;;
43154;SDS011;34212;51.018;13.586;2024-01-16T23:33:14;3.55;;;2.10;;
43154;SDS011;34212;51.018;13.586;2024-01-16T23:38:15;6.68;;;2.58;;
43154;SDS011;34212;51.018;13.586;2024-01-16T23:43:17;6.65;;;2.55;;
43154;SDS011;34212;51.018;13.586;2024-01-16T23:48:20;5.13;;;3.38;;
43154;SDS011;34212;51.018;13.586;2024-01-16T23:53:22;5.67;;;2.70;;
43154;SDS011;34212;51.018;13.586;2024-01-16T23:58:24;6.20;;;3.15;;
